Time;durP1;ratioP1;P1;durP2;ratioP2;P2;SDS_P1;SDS_P2;PMS_P1;PMS_P2;Temp;Humidity;BMP_temperature;BMP_pressure;BME280_temperature;BME280_humidity;BME280_pressure;Samples;Min_cycle;Max_cycle;Signal;HPM_P1;HPM_P2
2022/03/15 00:00:40;;;;;;;;;;;;;;;17.15;35.07;102821.28;5079397;28;831;-54
2022/03/15 00:03:05;;;;;;;;;;;;;;;17.13;35.61;102815.19;5072429;28;800;-54
2022/03/15 00:05:31;;;;;;;;;;;;;;;17.76;34.43;102816.75;5079709;28;782;-56
2022/03/15 00:07:57;;;;;;;;;;;;;;;18.06;33.74;102821.47;5080007;28;750;-55
2022/03/15 00:10:23;;;;;;;;;;;;;;;17.78;34.20;102819.28;5079258;28;760;-56
2022/03/15 00:12:48;;;;;;;;;;;;;;;17.33;35.08;102819.63;5079811;28;808;-55
2022/03/15 00:15:14;;;;;;;;;;;;;;;17.04;35.78;102827.53;5078791;28;1910;-56
2022/03/15 00:17:40;;;;;;;;;;;;;;;16.88;36.01;102813.31;5078867;28;1482;-56
2022/03/15 00:20:06;;;;;;;;;;;;;;;16.91;35.80;102815.63;5079832;28;963;-57
2022/03/15 00:22:34;;;;;;;;;;;;;;;17.63;34.80;102816.94;5079397;28;782;-56
2022/03/15 00:25:01;;;;;;;;;;;;;;;17.84;33.93;102806.50;5078354;28;860;-55
2022/03/15 00:27:26;;;;;;;;;;;;;;;17.47;34.82;102820.31;5079704;28;817;-55
2022/03/15 00:29:52;;;;;;;;;;;;;;;17.22;35.25;102807.47;5079402;28;785;-59
2022/03/15 00:32:17;;;;;;;;;;;;;;;16.93;35.92;102813.47;5078522;28;1050;-58
2022/03/15 00:34:43;;;;;;;;;;;;;;;17.04;35.65;102811.03;5079281;28;1910;-56
2022/03/15 00:37:09;;;;;;;;;;;;;;;17.61;34.76;102814.44;5078618;28;809;-56
2022/03/15 00:39:37;;;;;;;;;;;;;;;17.79;34.32;102799.81;5111649;27;1104;-57
2022/03/15 00:42:03;;;;;;;;;;;;;;;17.23;35.25;102800.91;5112262;27;1103;-58
2022/03/15 00:44:29;;;;;;;;;;;;;;;16.88;35.91;102793.22;5078988;28;754;-56
2022/03/15 00:46:54;;;;;;;;;;;;;;;16.83;35.88;102793.91;5110639;27;1204;-57
2022/03/15 00:49:20;;;;;;;;;;;;;;;16.90;35.87;102796.59;5079234;28;853;-56
2022/03/15 00:51:45;;;;;;;;;;;;;;;16.94;35.91;102797.81;5078779;28;877;-59
2022/03/15 00:54:11;;;;;;;;;;;;;;;17.09;35.68;102789.22;5078715;28;778;-57
2022/03/15 00:56:36;;;;;;;;;;;;;;;17.58;34.53;102794.78;5111122;27;1909;-58
2022/03/15 00:59:04;;;;;;;;;;;;;;;17.77;34.15;102792.84;5079022;28;856;-57
2022/03/15 01:01:30;;;;;;;;;;;;;;;17.33;34.74;102794.88;5110494;27;1442;-57
2022/03/15 01:03:55;;;;;;;;;;;;;;;17.05;35.48;102794.31;5078883;28;816;-55
2022/03/15 01:06:21;;;;;;;;;;;;;;;16.89;35.89;102787.50;5078809;28;772;-56
2022/03/15 01:08:46;;;;;;;;;;;;;;;16.99;35.83;102783.41;5077419;28;837;-59
2022/03/15 01:11:12;;;;;;;;;;;;;;;17.49;34.88;102775.00;5111145;28;1108;-56
2022/03/15 01:13:37;;;;;;;;;;;;;;;17.67;34.31;102774.16;5097937;28;769;-57
2022/03/15 01:16:03;;;;;;;;;;;;;;;17.62;34.33;102782.25;5066150;28;1897;-57
2022/03/15 01:18:30;;;;;;;;;;;;;;;17.16;35.29;102767.16;5040216;28;1193;-56
2022/03/15 01:20:56;;;;;;;;;;;;;;;16.81;36.03;102779.53;5073756;28;1110;-56
2022/03/15 01:23:23;;;;;;;;;;;;;;;16.68;36.00;102772.25;5073412;28;1117;-56
2022/03/15 01:25:49;;;;;;;;;;;;;;;16.88;35.78;102773.97;5058365;28;781;-57
2022/03/15 01:28:15;;;;;;;;;;;;;;;17.55;34.57;102773.25;5075860;28;1117;-56
2022/03/15 01:30:40;;;;;;;;;;;;;;;17.65;34.21;102767.19;5059114;28;951;-56
2022/03/15 01:33:06;;;;;;;;;;;;;;;17.18;35.08;102760.38;5059866;28;769;-56
2022/03/15 01:35:34;;;;;;;;;;;;;;;16.96;35.73;102762.72;5039497;28;1894;-56
2022/03/15 01:38:00;;;;;;;;;;;;;;;16.88;35.62;102761.09;5057728;28;832;-55
2022/03/15 01:40:26;;;;;;;;;;;;;;;17.21;35.22;102759.91;5064047;28;824;-55
2022/03/15 01:42:52;;;;;;;;;;;;;;;17.59;34.48;102761.53;5057844;28;1158;-56
2022/03/15 01:45:17;;;;;;;;;;;;;;;17.62;34.44;102755.56;5057153;28;966;-56
2022/03/15 01:47:43;;;;;;;;;;;;;;;17.23;35.10;102754.16;5040190;28;1205;-57
2022/03/15 01:50:09;;;;;;;;;;;;;;;16.91;35.66;102748.81;5057953;28;864;-55
2022/03/15 01:52:34;;;;;;;;;;;;;;;17.00;35.40;102752.94;5060349;28;785;-57
2022/03/15 01:55:00;;;;;;;;;;;;;;;17.15;35.33;102754.47;5072270;28;2006;-57
2022/03/15 01:57:25;;;;;;;;;;;;;;;17.59;34.58;102749.69;5072779;28;1324;-59
2022/03/15 01:59:52;;;;;;;;;;;;;;;17.28;34.74;102743.34;5039110;28;1291;-57
2022/03/15 02:02:18;;;;;;;;;;;;;;;16.95;35.34;102755.53;5078207;28;1098;-57
2022/03/15 02:04:43;;;;;;;;;;;;;;;16.75;36.01;102756.53;5072737;28;1456;-57
2022/03/15 02:07:12;;;;;;;;;;;;;;;16.67;36.03;102743.09;5062567;28;789;-56
2022/03/15 02:09:38;;;;;;;;;;;;;;;16.69;36.13;102753.84;5072694;28;1281;-56
2022/03/15 02:12:04;;;;;;;;;;;;;;;16.99;35.34;102742.19;5057543;28;852;-58
2022/03/15 02:14:30;;;;;;;;;;;;;;;17.57;34.43;102740.81;5059560;28;1959;-53
2022/03/15 02:16:55;;;;;;;;;;;;;;;17.53;34.53;102747.88;5076789;28;816;-58
2022/03/15 02:19:21;;;;;;;;;;;;;;;17.06;35.27;102742.94;5076997;28;896;-57
2022/03/15 02:21:47;;;;;;;;;;;;;;;16.89;35.69;102742.72;5077041;28;781;-55
2022/03/15 02:24:12;;;;;;;;;;;;;;;16.80;35.78;102735.78;5070337;28;901;-56
2022/03/15 02:26:38;;;;;;;;;;;;;;;17.26;34.87;102734.47;5077374;28;944;-57
2022/03/15 02:29:03;;;;;;;;;;;;;;;17.60;34.07;102735.72;5076746;28;840;-57
2022/03/15 02:31:29;;;;;;;;;;;;;;;17.65;33.99;102732.25;5075988;28;960;-55
2022/03/15 02:33:55;;;;;;;;;;;;;;;17.17;35.03;102727.59;5077450;28;785;-56
2022/03/15 02:36:20;;;;;;;;;;;;;;;16.78;35.58;102733.28;5076900;28;1980;-55
2022/03/15 02:38:46;;;;;;;;;;;;;;;16.61;36.14;102722.03;5076504;28;773;-58
2022/03/15 02:41:11;;;;;;;;;;;;;;;16.83;35.80;102729.84;5077305;28;801;-57
2022/03/15 02:43:37;;;;;;;;;;;;;;;18.32;33.05;102736.78;5076334;28;877;-57
2022/03/15 02:46:03;;;;;;;;;;;;;;;18.83;32.16;102731.63;5076094;28;749;-58
2022/03/15 02:48:28;;;;;;;;;;;;;;;19.48;30.96;102733.28;5076819;28;714;-57
2022/03/15 02:50:55;;;;;;;;;;;;;;;19.87;30.24;102742.91;5076751;28;1003;-56
2022/03/15 02:53:20;;;;;;;;;;;;;;;18.79;31.99;102744.22;5076593;28;789;-57
2022/03/15 02:55:46;;;;;;;;;;;;;;;18.17;33.33;102739.13;5076518;28;1978;-57
2022/03/15 02:58:12;;;;;;;;;;;;;;;18.44;32.78;102742.31;5077218;28;714;-57
2022/03/15 03:00:37;;;;;;;;;;;;;;;18.30;33.19;102742.53;5076008;28;863;-55
2022/03/15 03:03:03;;;;;;;;;;;;;;;17.87;34.02;102743.59;5076628;28;754;-56
2022/03/15 03:05:30;;;;;;;;;;;;;;;17.41;34.71;102737.66;5076404;28;821;-56
2022/03/15 03:07:55;;;;;;;;;;;;;;;17.31;34.82;102747.53;5076469;28;785;-57
2022/03/15 03:10:21;;;;;;;;;;;;;;;17.10;35.18;102750.50;5076297;28;1401;-58
2022/03/15 03:12:48;;;;;;;;;;;;;;;17.03;35.56;102749.75;5076578;28;1402;-59
2022/03/15 03:15:14;;;;;;;;;;;;;;;16.90;35.50;102750.72;5076204;28;1984;-57
2022/03/15 03:17:42;;;;;;;;;;;;;;;17.00;35.66;102744.72;5076748;28;830;-57
2022/03/15 03:20:09;;;;;;;;;;;;;;;17.64;34.47;102744.31;5076190;28;734;-57
2022/03/15 03:22:35;;;;;;;;;;;;;;;17.84;33.88;102735.81;5075746;28;840;-56
2022/03/15 03:25:00;;;;;;;;;;;;;;;17.36;34.59;102740.28;5076633;28;839;-56
2022/03/15 03:27:25;;;;;;;;;;;;;;;17.05;35.25;102733.84;5076325;28;788;-56
2022/03/15 03:29:51;;;;;;;;;;;;;;;16.81;35.77;102724.56;5076154;28;840;-56
2022/03/15 03:32:17;;;;;;;;;;;;;;;16.85;35.79;102738.72;5072015;28;832;-56
2022/03/15 03:34:43;;;;;;;;;;;;;;;17.36;34.79;102732.03;5076085;28;1913;-57
2022/03/15 03:37:08;;;;;;;;;;;;;;;17.69;34.03;102733.47;5075975;28;845;-56
2022/03/15 03:39:34;;;;;;;;;;;;;;;17.27;34.78;102730.66;5076519;28;738;-55
2022/03/15 03:41:59;;;;;;;;;;;;;;;16.95;35.51;102733.53;5076388;28;754;-57
2022/03/15 03:44:24;;;;;;;;;;;;;;;16.79;35.75;102728.63;5075921;28;844;-56
2022/03/15 03:46:50;;;;;;;;;;;;;;;18.37;33.02;102728.63;5075272;28;839;-55
2022/03/15 03:49:15;;;;;;;;;;;;;;;18.92;31.92;102743.97;5075869;28;861;-55
2022/03/15 03:51:42;;;;;;;;;;;;;;;19.63;30.99;102746.56;5076387;28;752;-56
2022/03/15 03:54:08;;;;;;;;;;;;;;;19.79;30.25;102744.09;5076265;28;720;-56
2022/03/15 03:56:33;;;;;;;;;;;;;;;18.73;32.25;102735.00;5076318;28;1978;-58
2022/03/15 03:58:59;;;;;;;;;;;;;;;17.87;33.89;102734.50;5075859;28;746;-58
2022/03/15 04:01:24;;;;;;;;;;;;;;;17.47;34.38;102740.56;5075253;28;935;-57
2022/03/15 04:03:50;;;;;;;;;;;;;;;17.06;34.52;102746.53;5075699;28;760;-57
2022/03/15 04:06:15;;;;;;;;;;;;;;;16.92;35.74;102740.34;5075682;28;781;-57
2022/03/15 04:08:42;;;;;;;;;;;;;;;17.66;34.48;102755.13;5076225;28;876;-57
2022/03/15 04:11:10;;;;;;;;;;;;;;;17.59;34.43;102752.44;5075960;28;816;-57
2022/03/15 04:13:40;;;;;;;;;;;;;;;17.26;34.90;102750.94;5075294;28;1348;-57
2022/03/15 04:16:06;;;;;;;;;;;;;;;17.04;35.44;102754.19;5075520;28;1902;-57
2022/03/15 04:18:32;;;;;;;;;;;;;;;16.90;35.73;102750.72;5076210;28;855;-56
2022/03/15 04:20:57;;;;;;;;;;;;;;;16.95;35.66;102751.97;5076019;28;827;-56
2022/03/15 04:23:23;;;;;;;;;;;;;;;17.47;34.70;102746.06;5078558;28;793;-57
2022/03/15 04:25:51;;;;;;;;;;;;;;;17.78;34.01;102747.72;5079273;28;852;-56
2022/03/15 04:28:16;;;;;;;;;;;;;;;17.28;34.65;102754.34;5079273;28;760;-57
2022/03/15 04:30:44;;;;;;;;;;;;;;;16.93;35.48;102757.69;5079183;28;928;-57
2022/03/15 04:33:09;;;;;;;;;;;;;;;16.79;35.89;102750.59;5079603;28;824;-57
2022/03/15 04:35:35;;;;;;;;;;;;;;;16.93;35.40;102760.44;5079121;28;1980;-57
2022/03/15 04:38:01;;;;;;;;;;;;;;;17.36;34.89;102756.78;5078727;28;828;-57
2022/03/15 04:40:26;;;;;;;;;;;;;;;17.63;34.26;102745.41;5079201;28;805;-56
2022/03/15 04:42:54;;;;;;;;;;;;;;;17.59;33.92;102750.53;5078854;28;919;-57
2022/03/15 04:45:20;;;;;;;;;;;;;;;17.10;35.18;102755.16;5079107;28;844;-57
2022/03/15 04:47:46;;;;;;;;;;;;;;;16.98;35.24;102757.00;5077356;28;987;-57
2022/03/15 04:50:11;;;;;;;;;;;;;;;16.89;35.65;102761.94;5076690;28;1483;-56
2022/03/15 04:52:36;;;;;;;;;;;;;;;17.30;34.84;102763.16;5078796;28;835;-57
2022/03/15 04:55:02;;;;;;;;;;;;;;;17.88;33.42;102752.66;5117366;27;1986;-57
2022/03/15 04:57:28;;;;;;;;;;;;;;;17.79;33.83;102755.78;5078429;28;1115;-57
2022/03/15 04:59:53;;;;;;;;;;;;;;;17.27;34.53;102749.88;5078458;28;825;-57
2022/03/15 05:02:19;;;;;;;;;;;;;;;17.02;35.11;102739.81;5078604;28;870;-56
2022/03/15 05:04:44;;;;;;;;;;;;;;;16.90;35.36;102745.22;5074657;28;1452;-55
2022/03/15 05:07:09;;;;;;;;;;;;;;;16.98;35.27;102754.25;5082936;28;855;-56
2022/03/15 05:11:05;;;;;;;;;;;;;;;17.40;34.34;102747.00;5078483;28;1236;-56
2022/03/15 05:12:21;;;;;;;;;;;;;;;17.56;34.04;102741.91;5078626;28;803;-56
2022/03/15 05:14:46;;;;;;;;;;;;;;;17.23;34.80;102751.41;5110705;27;1909;-55
2022/03/15 05:17:12;;;;;;;;;;;;;;;16.84;35.41;102748.00;5074923;28;1152;-57
2022/03/15 05:19:37;;;;;;;;;;;;;;;16.77;35.54;102746.19;5079226;28;789;-56
2022/03/15 05:22:03;;;;;;;;;;;;;;;16.81;35.67;102748.47;5078121;28;812;-56
2022/03/15 05:24:28;;;;;;;;;;;;;;;16.70;35.65;102736.31;5078542;28;801;-56
2022/03/15 05:26:54;;;;;;;;;;;;;;;16.80;35.56;102733.03;5110786;27;1026;-56
2022/03/15 05:29:19;;;;;;;;;;;;;;;16.79;35.50;102737.72;5078060;28;825;-57
2022/03/15 05:31:45;;;;;;;;;;;;;;;17.12;34.97;102739.28;5073370;28;1521;-57
2022/03/15 05:34:10;;;;;;;;;;;;;;;17.38;34.40;102731.78;5084703;28;913;-57
2022/03/15 05:36:36;;;;;;;;;;;;;;;17.49;33.96;102738.41;5075739;28;1976;-55
2022/03/15 05:39:01;;;;;;;;;;;;;;;17.28;34.35;102732.34;5080763;28;1007;-54
2022/03/15 05:41:26;;;;;;;;;;;;;;;17.25;34.40;102732.78;5077999;28;802;-54
2022/03/15 05:43:52;;;;;;;;;;;;;;;17.28;34.59;102719.41;5078641;28;825;-54
2022/03/15 05:46:18;;;;;;;;;;;;;;;17.37;34.17;102725.44;5077924;28;1418;-54
2022/03/15 05:48:43;;;;;;;;;;;;;;;17.51;33.96;102730.75;5078942;28;815;-55
2022/03/15 05:51:09;;;;;;;;;;;;;;;17.67;33.54;102724.63;5077642;28;824;-59
2022/03/15 05:53:36;;;;;;;;;;;;;;;17.68;33.74;102715.28;5073590;28;1228;-60
2022/03/15 05:56:01;;;;;;;;;;;;;;;17.42;34.01;102722.84;5083683;28;2250;-63
2022/03/15 05:58:27;;;;;;;;;;;;;;;17.15;34.79;102714.06;5077955;28;821;-60
2022/03/15 06:00:55;;;;;;;;;;;;;;;16.96;35.18;102718.75;5077800;28;852;-63
2022/03/15 06:03:21;;;;;;;;;;;;;;;16.90;35.10;102711.41;5076153;28;1435;-59
2022/03/15 06:05:46;;;;;;;;;;;;;;;17.27;34.44;102708.66;5081573;28;789;-62
2022/03/15 06:08:13;;;;;;;;;;;;;;;17.56;34.12;102709.75;5080730;28;783;-61
2022/03/15 06:10:38;;;;;;;;;;;;;;;17.78;33.67;102704.56;5083576;28;819;-61
2022/03/15 06:13:03;;;;;;;;;;;;;;;17.95;33.34;102702.00;5087028;28;1070;-61
2022/03/15 06:15:29;;;;;;;;;;;;;;;17.94;33.09;102702.22;5065992;28;1909;-59
2022/03/15 06:17:59;;;;;;;;;;;;;;;17.38;34.53;102707.88;5076204;28;1213;-60
2022/03/15 06:20:25;;;;;;;;;;;;;;;17.23;34.67;102707.44;5077515;28;841;-58
2022/03/15 06:22:50;;;;;;;;;;;;;;;16.99;35.01;102715.53;5074674;28;1207;-65
2022/03/15 06:25:20;;;;;;;;;;;;;;;17.03;34.89;102708.50;5076579;28;1059;-62
2022/03/15 06:27:47;;;;;;;;;;;;;;;17.20;34.83;102713.41;5077178;28;825;-63
2022/03/15 06:30:12;;;;;;;;;;;;;;;17.66;34.05;102717.44;5076613;28;952;-63
2022/03/15 06:32:38;;;;;;;;;;;;;;;18.05;33.35;102717.94;5076360;28;798;-60
2022/03/15 06:35:08;;;;;;;;;;;;;;;18.13;33.19;102709.34;5076730;28;1979;-60
2022/03/15 06:37:39;;;;;;;;;;;;;;;18.04;33.34;102702.47;5076580;28;777;-60
2022/03/15 06:40:05;;;;;;;;;;;;;;;17.51;34.23;102709.59;5076886;28;868;-59
2022/03/15 06:42:31;;;;;;;;;;;;;;;17.30;34.38;102708.19;5076837;28;1467;-60
2022/03/15 06:44:57;;;;;;;;;;;;;;;17.04;35.13;102707.44;5069516;28;1304;-59
2022/03/15 06:47:23;;;;;;;;;;;;;;;17.03;35.19;102707.69;5094400;28;1395;-61
2022/03/15 06:49:48;;;;;;;;;;;;;;;17.06;34.93;102708.03;5072021;28;1400;-57
2022/03/15 06:52:14;;;;;;;;;;;;;;;17.09;35.06;102709.50;5074278;28;1177;-60
2022/03/15 06:54:39;;;;;;;;;;;;;;;17.33;34.37;102715.97;5069996;28;1974;-59
2022/03/15 06:57:05;;;;;;;;;;;;;;;17.82;33.73;102715.09;5076026;28;768;-56
2022/03/15 06:59:30;;;;;;;;;;;;;;;18.17;32.97;102709.69;5076678;28;735;-57
2022/03/15 07:01:58;;;;;;;;;;;;;;;18.29;32.87;102710.53;5075958;28;997;-57
2022/03/15 07:04:23;;;;;;;;;;;;;;;18.27;32.87;102714.59;5076938;28;805;-58
2022/03/15 07:06:49;;;;;;;;;;;;;;;17.78;33.69;102710.06;5075812;28;949;-56
2022/03/15 07:09:14;;;;;;;;;;;;;;;17.46;34.07;102703.97;5075271;28;1269;-57
2022/03/15 07:11:40;;;;;;;;;;;;;;;17.32;34.55;102711.56;5092137;28;1281;-59
2022/03/15 07:14:06;;;;;;;;;;;;;;;17.18;34.27;102710.88;5095575;28;805;-59
2022/03/15 07:16:31;;;;;;;;;;;;;;;17.27;34.94;102714.97;5079770;28;1921;-60
2022/03/15 07:18:57;;;;;;;;;;;;;;;17.24;34.93;102709.94;5076291;28;1103;-60
2022/03/15 07:21:24;;;;;;;;;;;;;;;17.14;34.56;102709.66;5076359;28;861;-61
2022/03/15 07:23:49;;;;;;;;;;;;;;;17.10;34.53;102716.69;5076466;28;746;-60
2022/03/15 07:26:14;;;;;;;;;;;;;;;17.16;34.34;102712.19;5076711;28;877;-62
2022/03/15 07:28:40;;;;;;;;;;;;;;;16.78;35.17;102703.06;5076366;28;751;-59
2022/03/15 07:31:05;;;;;;;;;;;;;;;17.34;34.04;102709.41;5076150;28;831;-63
2022/03/15 07:33:31;;;;;;;;;;;;;;;17.33;34.38;102696.72;5075989;28;876;-57
2022/03/15 07:35:58;;;;;;;;;;;;;;;17.28;34.42;102704.84;5074072;28;1971;-58
2022/03/15 07:38:24;;;;;;;;;;;;;;;17.17;34.63;102700.13;5075936;28;769;-59
2022/03/15 07:40:52;;;;;;;;;;;;;;;17.35;34.36;102704.72;5076324;28;824;-56
2022/03/15 07:43:19;;;;;;;;;;;;;;;17.52;33.92;102696.69;5095694;28;809;-58
2022/03/15 07:45:45;;;;;;;;;;;;;;;17.87;33.55;102709.72;5085770;28;800;-58
2022/03/15 07:48:11;;;;;;;;;;;;;;;17.97;32.97;102700.94;5072270;28;1291;-58
2022/03/15 07:50:39;;;;;;;;;;;;;;;17.71;33.76;102698.31;5072207;28;1177;-59
2022/03/15 07:53:04;;;;;;;;;;;;;;;17.52;33.77;102708.53;5074957;28;1192;-56
2022/03/15 07:55:30;;;;;;;;;;;;;;;17.40;34.12;102707.63;5074178;28;1975;-60
2022/03/15 07:57:55;;;;;;;;;;;;;;;17.20;34.45;102696.91;5077602;28;1173;-59
2022/03/15 08:00:21;;;;;;;;;;;;;;;17.17;34.55;102697.38;5079015;28;762;-58
2022/03/15 08:02:46;;;;;;;;;;;;;;;17.36;34.34;102696.28;5079448;28;906;-57
2022/03/15 08:05:12;;;;;;;;;;;;;;;17.43;33.82;102697.03;5079701;28;848;-56
2022/03/15 08:07:37;;;;;;;;;;;;;;;17.55;33.78;102691.53;5079440;28;757;-56
2022/03/15 08:10:03;;;;;;;;;;;;;;;17.55;33.89;102693.47;5080110;28;1051;-56
2022/03/15 08:12:29;;;;;;;;;;;;;;;17.70;33.72;102693.06;5079305;28;1091;-59
2022/03/15 08:14:55;;;;;;;;;;;;;;;17.43;34.18;102688.75;5078255;28;1978;-56
2022/03/15 08:17:20;;;;;;;;;;;;;;;17.02;34.64;102673.84;5095770;28;776;-57
2022/03/15 08:19:45;;;;;;;;;;;;;;;17.78;33.33;102673.44;5082798;28;1090;-58
2022/03/15 08:22:11;;;;;;;;;;;;;;;17.68;33.70;102675.94;5094325;28;750;-56
2022/03/15 08:24:38;;;;;;;;;;;;;;;17.74;33.47;102672.22;5099192;28;833;-55
2022/03/15 08:27:03;;;;;;;;;;;;;;;18.38;32.49;102677.97;5083632;28;886;-56
2022/03/15 08:29:30;;;;;;;;;;;;;;;18.56;32.27;102670.66;5078991;28;885;-62
2022/03/15 08:31:56;;;;;;;;;;;;;;;18.53;31.94;102666.47;5079503;28;1013;-62
2022/03/15 08:34:21;;;;;;;;;;;;;;;18.34;32.18;102671.28;5078922;28;1305;-57
2022/03/15 08:36:47;;;;;;;;;;;;;;;18.17;32.77;102670.31;5078136;28;1918;-62
2022/03/15 08:39:14;;;;;;;;;;;;;;;17.86;33.19;102666.75;5078813;28;944;-62
2022/03/15 08:41:40;;;;;;;;;;;;;;;17.82;33.45;102660.06;5078833;28;1229;-61
2022/03/15 08:44:06;;;;;;;;;;;;;;;17.67;33.75;102661.34;5072244;28;1233;-62
2022/03/15 08:46:31;;;;;;;;;;;;;;;18.05;33.18;102662.88;5083131;28;969;-59
2022/03/15 08:49:00;;;;;;;;;;;;;;;18.37;32.62;102656.16;5074250;28;1668;-61
2022/03/15 08:51:25;;;;;;;;;;;;;;;18.71;31.79;102656.41;5085521;28;904;-61
2022/03/15 08:53:51;;;;;;;;;;;;;;;18.80;31.75;102641.16;5079276;28;745;-60
2022/03/15 08:56:16;;;;;;;;;;;;;;;19.08;31.18;102651.44;5078185;28;1969;-60
2022/03/15 08:58:41;;;;;;;;;;;;;;;19.14;31.15;102650.44;5076455;28;1311;-60
2022/03/15 09:01:07;;;;;;;;;;;;;;;19.10;31.33;102638.22;5078298;28;1079;-59
2022/03/15 09:03:32;;;;;;;;;;;;;;;18.79;31.84;102645.84;5073745;28;1220;-63
2022/03/15 09:05:58;;;;;;;;;;;;;;;18.32;32.44;102637.63;5078051;28;1185;-61
2022/03/15 09:08:23;;;;;;;;;;;;;;;17.90;33.14;102637.69;5077593;28;1271;-59
2022/03/15 09:10:49;;;;;;;;;;;;;;;17.60;33.80;102624.84;5075333;28;1148;-58
2022/03/15 09:13:14;;;;;;;;;;;;;;;17.35;34.38;102627.72;5088613;28;1220;-58
2022/03/15 09:15:40;;;;;;;;;;;;;;;17.33;34.46;102630.72;5086035;28;1909;-58
2022/03/15 09:18:05;;;;;;;;;;;;;;;17.79;33.92;102633.84;5078768;28;776;-58
2022/03/15 09:20:31;;;;;;;;;;;;;;;18.41;32.55;102622.41;5070502;28;1350;-58
2022/03/15 09:22:56;;;;;;;;;;;;;;;18.33;32.89;102614.53;5094098;28;790;-58
2022/03/15 09:25:22;;;;;;;;;;;;;;;18.28;32.50;102615.22;5098652;28;815;-58
2022/03/15 09:27:48;;;;;;;;;;;;;;;18.07;33.29;102605.66;5097570;28;864;-58
2022/03/15 09:30:13;;;;;;;;;;;;;;;17.98;33.41;102598.84;5087582;28;821;-57
2022/03/15 09:32:38;;;;;;;;;;;;;;;17.86;33.56;102592.47;5078687;28;788;-60
2022/03/15 09:35:04;;;;;;;;;;;;;;;17.86;33.52;102592.47;5080204;28;1976;-60
2022/03/15 09:37:30;;;;;;;;;;;;;;;17.80;33.86;102594.25;5078162;28;1294;-60
2022/03/15 09:39:57;;;;;;;;;;;;;;;18.09;33.00;102584.25;5077239;28;1226;-56
2022/03/15 09:42:23;;;;;;;;;;;;;;;18.29;32.90;102581.09;5077429;28;844;-59
2022/03/15 09:44:48;;;;;;;;;;;;;;;18.43;32.53;102578.09;5078080;28;766;-57
2022/03/15 09:47:15;;;;;;;;;;;;;;;18.60;32.48;102569.91;5077919;28;1246;-59
2022/03/15 09:49:42;;;;;;;;;;;;;;;18.67;32.23;102562.34;5073476;28;1178;-60
2022/03/15 09:52:09;;;;;;;;;;;;;;;18.78;32.07;102564.22;5078225;28;812;-57
2022/03/15 09:54:35;;;;;;;;;;;;;;;18.93;31.85;102546.38;5109857;28;762;-57
2022/03/15 09:57:02;;;;;;;;;;;;;;;19.03;31.50;102549.31;5076099;28;1905;-58
2022/03/15 09:59:28;;;;;;;;;;;;;;;19.14;31.39;102553.91;5109647;27;805;-57
2022/03/15 10:01:56;;;;;;;;;;;;;;;19.14;31.32;102556.69;5074980;28;1177;-57
2022/03/15 10:04:22;;;;;;;;;;;;;;;18.76;31.97;102560.03;5083467;28;802;-56
2022/03/15 10:06:48;;;;;;;;;;;;;;;18.29;32.86;102550.81;5097172;28;801;-56
2022/03/15 10:09:14;;;;;;;;;;;;;;;18.21;32.94;102553.09;5080900;28;937;-57
2022/03/15 10:11:39;;;;;;;;;;;;;;;17.80;33.69;102558.47;5079489;28;1186;-57
2022/03/15 10:14:05;;;;;;;;;;;;;;;17.39;34.47;102547.31;5079709;28;988;-58
2022/03/15 10:16:31;;;;;;;;;;;;;;;17.31;34.50;102533.91;5076756;28;1913;-59
2022/03/15 10:18:57;;;;;;;;;;;;;;;17.27;34.76;102539.00;5077151;28;757;-58
2022/03/15 10:21:25;;;;;;;;;;;;;;;17.20;34.75;102543.78;5075482;28;869;-58
2022/03/15 10:23:54;;;;;;;;;;;;;;;17.24;34.32;102527.66;5076970;28;883;-57
2022/03/15 10:26:26;;;;;;;;;;;;;;;17.70;33.91;102534.31;5077431;28;805;-55
2022/03/15 10:28:53;;;;;;;;;;;;;;;18.19;33.10;102530.47;5076844;28;769;-57
2022/03/15 10:31:22;;;;;;;;;;;;;;;18.54;32.10;102524.91;5077062;28;1030;-58
2022/03/15 10:33:49;;;;;;;;;;;;;;;18.33;32.68;102523.63;5077043;28;822;-59
2022/03/15 10:36:16;;;;;;;;;;;;;;;18.06;33.19;102526.91;5076683;28;1906;-59
2022/03/15 10:38:47;;;;;;;;;;;;;;;17.81;33.52;102526.28;5077249;28;735;-59
2022/03/15 10:41:16;;;;;;;;;;;;;;;17.55;34.21;102522.94;5077042;28;855;-59
2022/03/15 10:43:41;;;;;;;;;;;;;;;17.65;33.79;102516.84;5077459;28;1037;-59
2022/03/15 10:46:09;;;;;;;;;;;;;;;17.76;33.70;102514.06;5076328;28;954;-58
2022/03/15 10:48:35;;;;;;;;;;;;;;;18.34;32.51;102507.94;5076576;28;1019;-57
2022/03/15 10:51:27;;;;;;;;;;;;;;;18.77;31.83;102503.84;5075000;28;972;-56
2022/03/15 10:54:00;;;;;;;;;;;;;;;19.17;31.35;102510.38;5081830;28;1500;-54
2022/03/15 10:56:25;;;;;;;;;;;;;;;19.12;31.18;102503.69;5093729;28;1957;-56
2022/03/15 10:58:55;;;;;;;;;;;;;;;17.82;33.37;102506.78;5075844;28;1483;-58
2022/03/15 11:01:22;;;;;;;;;;;;;;;17.74;33.71;102497.00;5072774;28;785;-55
2022/03/15 11:03:53;;;;;;;;;;;;;;;17.75;33.58;102500.56;5074573;28;1213;-58
2022/03/15 11:06:38;;;;;;;;;;;;;;;17.81;33.82;102498.78;5076010;28;1192;-60
2022/03/15 11:09:23;;;;;;;;;;;;;;;17.76;33.86;102492.06;5081915;28;807;-59
2022/03/15 11:11:52;;;;;;;;;;;;;;;17.87;33.55;102487.66;5076262;28;1178;-62
2022/03/15 11:14:26;;;;;;;;;;;;;;;18.25;32.95;102483.53;5076609;28;1162;-61
2022/03/15 11:16:52;;;;;;;;;;;;;;;18.67;32.00;102482.44;5076598;28;1909;-61
2022/03/15 11:19:18;;;;;;;;;;;;;;;18.90;31.61;102483.44;5108669;28;806;-59
2022/03/15 11:21:43;;;;;;;;;;;;;;;19.09;31.52;102479.38;5108489;28;884;-62
2022/03/15 11:24:11;;;;;;;;;;;;;;;19.13;31.10;102466.75;5108690;28;788;-61
2022/03/15 11:26:37;;;;;;;;;;;;;;;18.88;31.57;102458.06;5075949;28;825;-60
2022/03/15 11:29:04;;;;;;;;;;;;;;;18.58;32.42;102456.34;5076919;28;800;-59
2022/03/15 11:31:30;;;;;;;;;;;;;;;18.40;32.69;102458.22;5077243;28;853;-60
2022/03/15 11:33:57;;;;;;;;;;;;;;;18.18;33.09;102465.50;5079703;28;972;-61
2022/03/15 11:36:23;;;;;;;;;;;;;;;18.11;33.15;102463.69;5104722;27;1898;-67
2022/03/15 11:38:48;;;;;;;;;;;;;;;18.00;33.06;102442.53;5079365;28;1444;-64
2022/03/15 11:41:14;;;;;;;;;;;;;;;17.89;33.50;102446.13;5107806;27;1202;-60
2022/03/15 11:43:50;;;;;;;;;;;;;;;17.82;33.67;102445.41;5099178;28;807;-59
2022/03/15 11:46:33;;;;;;;;;;;;;;;17.79;33.75;102441.22;5086113;28;827;-61
2022/03/15 11:49:21;;;;;;;;;;;;;;;17.76;33.55;102436.22;5089509;28;801;-60
2022/03/15 11:52:05;;;;;;;;;;;;;;;17.79;33.86;102431.06;5086884;28;1299;-60
2022/03/15 11:54:50;;;;;;;;;;;;;;;17.76;33.77;102433.47;5073431;28;1182;-59
2022/03/15 11:57:21;;;;;;;;;;;;;;;17.87;33.75;102432.59;5078994;28;992;-60
2022/03/15 11:59:47;;;;;;;;;;;;;;;17.87;33.61;102434.53;5079833;28;922;-62
2022/03/15 12:02:13;;;;;;;;;;;;;;;18.36;32.98;102429.50;5079319;28;820;-61
2022/03/15 12:04:39;;;;;;;;;;;;;;;18.99;31.76;102415.78;5078683;28;879;-64
2022/03/15 12:07:05;;;;;;;;;;;;;;;19.30;31.06;102417.09;5079687;28;869;-63
2022/03/15 12:09:30;;;;;;;;;;;;;;;19.52;30.58;102430.13;5079887;28;747;-64
2022/03/15 12:12:01;;;;;;;;;;;;;;;19.79;30.52;102419.22;5078967;28;1175;-63
2022/03/15 12:14:32;;;;;;;;;;;;;;;19.91;30.00;102427.41;5078938;28;1059;-65
2022/03/15 12:16:59;;;;;;;;;;;;;;;20.02;29.94;102405.44;5077703;28;1906;-64
2022/03/15 12:19:39;;;;;;;;;;;;;;;20.11;29.64;102396.44;5078748;28;793;-64
2022/03/15 12:22:08;;;;;;;;;;;;;;;20.15;29.62;102392.06;5078982;28;861;-64
2022/03/15 12:24:34;;;;;;;;;;;;;;;20.21;29.77;102403.19;5079923;28;740;-64
2022/03/15 12:27:03;;;;;;;;;;;;;;;20.33;29.65;102412.97;5079459;28;784;-62
2022/03/15 12:29:29;;;;;;;;;;;;;;;20.35;29.39;102393.38;5079063;28;953;-62
2022/03/15 12:31:55;;;;;;;;;;;;;;;20.44;29.51;102399.25;5078916;28;1033;-62
2022/03/15 12:34:21;;;;;;;;;;;;;;;20.58;29.35;102392.25;5078899;28;866;-61
2022/03/15 12:36:49;;;;;;;;;;;;;;;20.54;29.13;102387.47;5078978;28;1930;-62
2022/03/15 12:39:15;;;;;;;;;;;;;;;20.62;29.00;102392.53;5079472;28;730;-62
2022/03/15 12:41:41;;;;;;;;;;;;;;;20.73;29.13;102393.50;5078467;28;983;-62
2022/03/15 12:44:09;;;;;;;;;;;;;;;20.76;29.04;102382.78;5078116;28;923;-62
2022/03/15 12:46:37;;;;;;;;;;;;;;;20.78;28.94;102390.81;5079235;28;927;-62
2022/03/15 12:49:06;;;;;;;;;;;;;;;20.91;28.77;102406.13;5104793;28;1580;-61